Time;durP1;ratioP1;P1;durP2;ratioP2;P2;SDS_P1;SDS_P2;PMS_P1;PMS_P2;Temp;Humidity;BMP_temperature;BMP_pressure;BME280_temperature;BME280_humidity;BME280_pressure;Samples;Min_cycle;Max_cycle;Signal;HPM_P1;HPM_P2
2023/04/15 00:00:09;;;;;;;8.07;3.33;;;6.80;52.00;;;;;;5053248;28;46579;-65
2023/04/15 00:02:36;;;;;;;9.93;4.10;;;6.80;52.00;;;;;;5052525;28;46347;-65
2023/04/15 00:05:01;;;;;;;12.80;4.00;;;6.80;52.00;;;;;;5051221;28;46215;-64
2023/04/15 00:07:28;;;;;;;6.10;3.33;;;6.80;52.10;;;;;;5052044;28;46777;-65
2023/04/15 00:09:56;;;;;;;8.77;4.03;;;6.80;52.20;;;;;;5052338;28;47099;-64
2023/04/15 00:12:22;;;;;;;7.97;3.57;;;6.80;52.40;;;;;;5049447;28;46424;-64
2023/04/15 00:14:48;;;;;;;8.83;4.10;;;6.70;52.60;;;;;;5050426;28;46393;-67
2023/04/15 00:17:14;;;;;;;8.00;3.67;;;6.70;52.80;;;;;;5049353;28;46369;-65
2023/04/15 00:19:40;;;;;;;6.43;3.40;;;6.60;52.80;;;;;;5051922;28;47041;-65
2023/04/15 00:22:06;;;;;;;13.40;3.30;;;6.70;53.00;;;;;;5051605;28;46861;-64
2023/04/15 00:24:32;;;;;;;7.07;3.50;;;6.60;53.00;;;;;;5048931;28;46325;-65
2023/04/15 00:26:58;;;;;;;7.80;3.40;;;6.60;53.10;;;;;;5054355;28;46290;-65
2023/04/15 00:29:25;;;;;;;6.33;3.70;;;6.60;53.20;;;;;;5050141;28;46760;-65
2023/04/15 00:31:50;;;;;;;4.90;3.03;;;6.50;53.30;;;;;;5054247;28;45827;-65
2023/04/15 00:34:16;;;;;;;8.60;3.50;;;6.50;53.50;;;;;;5053961;28;46524;-65
2023/04/15 00:36:42;;;;;;;5.73;3.53;;;6.50;53.80;;;;;;5054610;28;46384;-65
2023/04/15 00:39:08;;;;;;;6.50;3.97;;;6.40;53.70;;;;;;5051140;28;46429;-63
2023/04/15 00:41:34;;;;;;;7.30;3.73;;;6.40;53.90;;;;;;5047590;28;46286;-64
2023/04/15 00:44:01;;;;;;;9.23;3.87;;;6.30;54.00;;;;;;5049615;28;46379;-65
2023/04/15 00:46:29;;;;;;;8.40;3.97;;;6.30;54.30;;;;;;5050888;28;46734;-65
2023/04/15 00:48:56;;;;;;;10.03;4.07;;;6.20;54.40;;;;;;5048313;28;46518;-65
2023/04/15 00:51:22;;;;;;;13.63;4.63;;;6.20;54.50;;;;;;5051211;28;46368;-65
2023/04/15 00:53:47;;;;;;;8.23;4.40;;;6.20;54.70;;;;;;5050408;28;45821;-65
2023/04/15 00:56:13;;;;;;;9.70;4.10;;;6.10;55.90;;;;;;5050386;28;46424;-65
2023/04/15 00:58:39;;;;;;;11.17;4.30;;;6.10;54.80;;;;;;5047802;28;46401;-64
2023/04/15 01:01:05;;;;;;;7.73;4.27;;;6.00;55.00;;;;;;5054083;28;46394;-65
2023/04/15 01:03:30;;;;;;;7.77;3.77;;;6.00;55.10;;;;;;5051386;28;46286;-64
2023/04/15 01:05:59;;;;;;;9.27;4.20;;;6.00;55.10;;;;;;5051528;28;46411;-65
2023/04/15 01:08:28;;;;;;;6.70;3.50;;;5.90;55.30;;;;;;5049931;28;47020;-65
2023/04/15 01:10:56;;;;;;;8.63;4.17;;;5.90;55.40;;;;;;5052382;28;46506;-64
2023/04/15 01:13:23;;;;;;;8.63;3.83;;;5.90;55.40;;;;;;5054082;28;46464;-64
2023/04/15 01:15:50;;;;;;;8.23;3.70;;;5.80;55.30;;;;;;5052515;28;46583;-65
2023/04/15 01:18:17;;;;;;;7.13;3.40;;;5.80;55.70;;;;;;5054534;28;46352;-65
2023/04/15 01:20:43;;;;;;;6.73;3.73;;;5.80;55.80;;;;;;5049548;28;46393;-64
2023/04/15 01:23:09;;;;;;;8.97;3.70;;;5.70;55.60;;;;;;5049006;28;46381;-65
2023/04/15 01:25:34;;;;;;;8.13;3.40;;;5.70;55.60;;;;;;5050697;28;46320;-64
2023/04/15 01:28:01;;;;;;;7.23;3.70;;;5.70;55.70;;;;;;5049328;28;46509;-64
2023/04/15 01:30:26;;;;;;;6.73;4.07;;;5.80;55.60;;;;;;5049620;28;46361;-65
2023/04/15 01:32:53;;;;;;;15.37;3.70;;;5.70;55.50;;;;;;5048004;28;46426;-65
2023/04/15 01:35:19;;;;;;;6.23;3.33;;;5.70;55.50;;;;;;5048150;28;45874;-64
2023/04/15 01:37:45;;;;;;;12.97;3.80;;;5.80;55.50;;;;;;5053218;28;46757;-65
2023/04/15 01:40:10;;;;;;;7.60;3.60;;;5.80;55.50;;;;;;5048761;28;45826;-64
2023/04/15 01:42:37;;;;;;;7.70;4.00;;;5.70;55.50;;;;;;5048051;28;46334;-64
2023/04/15 01:45:03;;;;;;;7.30;3.90;;;5.70;55.50;;;;;;5056221;28;46380;-65
2023/04/15 01:47:28;;;;;;;8.10;3.70;;;5.70;55.50;;;;;;5049972;28;46425;-64
2023/04/15 01:49:55;;;;;;;8.10;3.63;;;5.70;55.60;;;;;;5048243;28;46438;-65
2023/04/15 01:52:20;;;;;;;10.50;4.03;;;5.70;56.00;;;;;;5047771;28;46322;-64
2023/04/15 01:54:46;;;;;;;12.40;3.63;;;5.60;56.10;;;;;;5045629;28;46465;-65
2023/04/15 01:57:12;;;;;;;9.10;3.70;;;5.60;56.10;;;;;;5050646;28;46207;-64
2023/04/15 01:59:37;;;;;;;9.50;3.47;;;5.60;56.10;;;;;;5049462;28;45891;-66
2023/04/15 02:02:04;;;;;;;6.67;3.50;;;5.60;56.20;;;;;;5049251;28;46309;-65
2023/04/15 02:04:29;;;;;;;9.20;3.97;;;5.60;56.30;;;;;;5051376;28;46412;-64
2023/04/15 02:06:55;;;;;;;8.33;3.77;;;5.60;56.10;;;;;;5049982;28;46068;-64
2023/04/15 02:09:21;;;;;;;9.50;4.20;;;5.60;56.10;;;;;;5049543;28;46400;-65
2023/04/15 02:11:47;;;;;;;6.53;3.37;;;5.70;56.20;;;;;;5051596;28;46338;-65
2023/04/15 02:14:13;;;;;;;6.70;2.93;;;5.70;56.20;;;;;;5049184;28;46576;-65
2023/04/15 02:16:39;;;;;;;9.20;3.70;;;5.70;56.20;;;;;;5052209;28;46370;-65
2023/04/15 02:19:05;;;;;;;8.67;3.63;;;5.60;56.10;;;;;;5048614;28;46374;-65
2023/04/15 02:21:30;;;;;;;13.97;3.13;;;5.70;56.20;;;;;;5049808;28;46224;-65
2023/04/15 02:23:56;;;;;;;10.43;3.47;;;5.70;56.20;;;;;;5049311;28;45932;-65
2023/04/15 02:26:22;;;;;;;7.50;3.77;;;5.80;56.30;;;;;;5049787;28;46433;-65
2023/04/15 02:28:50;;;;;;;7.30;3.73;;;5.80;56.20;;;;;;5044891;28;45743;-65
2023/04/15 02:31:16;;;;;;;14.53;3.50;;;5.80;56.20;;;;;;5047582;28;46614;-65
2023/04/15 02:33:41;;;;;;;10.60;3.00;;;5.80;56.00;;;;;;5048098;28;46420;-64
2023/04/15 02:36:08;;;;;;;6.67;3.90;;;5.80;56.00;;;;;;5044696;28;48828;-65
2023/04/15 02:38:34;;;;;;;5.80;3.33;;;5.80;55.80;;;;;;5048545;28;46451;-65
2023/04/15 02:41:00;;;;;;;5.40;3.07;;;5.90;55.80;;;;;;5048079;28;46330;-65
2023/04/15 02:43:26;;;;;;;8.57;2.90;;;5.90;55.80;;;;;;5047649;28;46406;-64
2023/04/15 02:45:52;;;;;;;5.20;2.63;;;5.90;55.70;;;;;;5049584;28;48275;-65
2023/04/15 02:48:19;;;;;;;9.03;3.00;;;5.80;55.60;;;;;;5051729;28;46389;-64
2023/04/15 02:50:45;;;;;;;7.20;3.13;;;5.80;55.60;;;;;;5054005;28;46262;-65
2023/04/15 02:53:12;;;;;;;7.33;3.00;;;5.80;55.80;;;;;;5048395;28;46381;-65
2023/04/15 02:55:37;;;;;;;7.30;2.73;;;5.80;56.00;;;;;;5046071;28;46445;-64
2023/04/15 02:58:03;;;;;;;7.57;3.03;;;5.80;56.00;;;;;;5049831;28;46500;-65
2023/04/15 03:00:29;;;;;;;5.60;2.80;;;5.80;56.00;;;;;;5048320;28;46475;-65
2023/04/15 03:03:05;;;;;;;5.90;2.90;;;5.70;56.10;;;;;;5046586;28;46596;-64
2023/04/15 03:05:31;;;;;;;7.63;3.53;;;5.70;56.10;;;;;;5049516;28;46512;-65
2023/04/15 03:07:56;;;;;;;6.63;3.20;;;5.70;56.20;;;;;;5047876;28;46406;-65
2023/04/15 03:10:22;;;;;;;6.40;2.63;;;5.70;56.30;;;;;;5050723;28;46529;-64
2023/04/15 03:12:48;;;;;;;9.13;3.00;;;5.70;56.20;;;;;;5051394;28;46447;-64
2023/04/15 03:15:14;;;;;;;6.60;2.40;;;5.70;56.00;;;;;;5051039;28;47103;-65
2023/04/15 03:17:40;;;;;;;6.30;2.80;;;5.70;56.10;;;;;;5048703;28;46402;-64
2023/04/15 03:20:06;;;;;;;5.50;2.70;;;5.70;56.20;;;;;;5050612;28;46416;-65
2023/04/15 03:22:32;;;;;;;8.40;3.47;;;5.70;56.30;;;;;;5048031;28;46357;-65
2023/04/15 03:24:58;;;;;;;8.17;2.63;;;5.70;56.20;;;;;;5048551;28;46994;-66
2023/04/15 03:27:24;;;;;;;5.30;2.60;;;5.70;56.20;;;;;;5046882;28;46333;-65
2023/04/15 03:29:50;;;;;;;8.47;3.27;;;5.70;56.30;;;;;;5045297;28;46404;-65
2023/04/15 03:32:16;;;;;;;4.17;2.50;;;5.60;56.30;;;;;;5047488;28;46687;-65
2023/04/15 03:34:42;;;;;;;29.50;12.97;;;5.70;56.30;;;;;;5047855;28;47000;-65
2023/04/15 03:37:08;;;;;;;26.00;11.90;;;5.80;56.50;;;;;;5049497;28;46411;-65
2023/04/15 03:39:34;;;;;;;42.53;19.93;;;5.70;56.20;;;;;;5058351;28;46405;-64
2023/04/15 03:42:00;;;;;;;23.10;10.93;;;5.70;56.20;;;;;;5051221;28;46480;-64
2023/04/15 03:44:26;;;;;;;20.50;7.30;;;5.70;56.10;;;;;;5050983;28;46475;-64
2023/04/15 03:46:52;;;;;;;15.33;7.20;;;5.70;56.10;;;;;;5045864;28;46368;-64
2023/04/15 03:49:18;;;;;;;23.10;11.80;;;5.70;56.10;;;;;;5048461;28;46353;-64
2023/04/15 03:51:44;;;;;;;11.73;7.50;;;5.70;56.00;;;;;;5045629;28;46457;-64
2023/04/15 03:54:10;;;;;;;11.70;5.83;;;5.70;56.00;;;;;;5046304;28;46429;-63
2023/04/15 03:56:36;;;;;;;10.10;4.40;;;5.70;55.90;;;;;;5044884;28;46709;-63
2023/04/15 03:59:02;;;;;;;5.37;3.33;;;5.70;57.10;;;;;;5050294;28;46391;-63
2023/04/15 04:01:27;;;;;;;7.67;2.80;;;5.70;56.00;;;;;;5049195;28;46435;-63
2023/04/15 04:03:53;;;;;;;5.67;2.57;;;5.70;56.00;;;;;;5049178;28;46250;-64
2023/04/15 04:06:19;;;;;;;4.47;2.90;;;5.70;55.90;;;;;;5050371;28;46386;-64
2023/04/15 04:08:45;;;;;;;6.50;3.90;;;5.60;55.80;;;;;;5051453;28;46282;-64
2023/04/15 04:11:10;;;;;;;7.77;2.90;;;5.60;56.00;;;;;;5052100;28;46665;-64
2023/04/15 04:13:36;;;;;;;8.13;2.90;;;5.50;56.10;;;;;;5045868;28;46447;-64
2023/04/15 04:16:03;;;;;;;8.07;3.10;;;5.50;56.20;;;;;;5051362;28;46624;-65
2023/04/15 04:18:30;;;;;;;5.53;2.70;;;5.50;56.10;;;;;;5052873;28;46440;-65
2023/04/15 04:20:55;;;;;;;7.67;2.20;;;5.50;56.00;;;;;;5048911;28;46665;-64
2023/04/15 04:23:21;;;;;;;7.20;2.80;;;5.60;56.20;;;;;;5052451;28;47277;-64
2023/04/15 04:25:46;;;;;;;7.87;2.57;;;5.50;56.20;;;;;;5053262;28;46314;-66
2023/04/15 04:28:12;;;;;;;14.40;2.70;;;5.50;56.00;;;;;;5048908;28;45839;-64
2023/04/15 04:30:38;;;;;;;5.00;2.53;;;5.60;56.10;;;;;;5048649;28;46420;-64
2023/04/15 04:33:04;;;;;;;9.20;3.17;;;5.50;55.90;;;;;;5051243;28;46316;-65
2023/04/15 04:35:29;;;;;;;5.23;2.47;;;5.50;55.90;;;;;;5050359;28;46326;-64
2023/04/15 04:37:55;;;;;;;5.43;2.70;;;5.50;56.10;;;;;;5051430;28;46405;-65
2023/04/15 04:40:21;;;;;;;6.07;2.50;;;5.50;55.80;;;;;;5049132;28;46394;-65
2023/04/15 04:42:46;;;;;;;10.87;2.30;;;5.50;55.70;;;;;;5048836;28;46297;-64
2023/04/15 04:45:12;;;;;;;8.80;2.67;;;5.50;55.80;;;;;;5054934;28;46392;-66
2023/04/15 04:47:37;;;;;;;7.03;2.30;;;5.50;55.80;;;;;;5050157;28;46429;-67
2023/04/15 04:50:03;;;;;;;7.40;2.47;;;5.50;56.00;;;;;;5047311;28;46390;-66
2023/04/15 04:52:29;;;;;;;6.80;2.60;;;5.50;56.00;;;;;;5052291;28;47085;-66
2023/04/15 04:54:55;;;;;;;5.93;2.20;;;5.50;55.80;;;;;;5053920;28;46480;-65
2023/04/15 04:57:20;;;;;;;3.23;2.20;;;5.50;55.50;;;;;;5051138;28;46274;-65
2023/04/15 04:59:46;;;;;;;4.87;2.50;;;5.50;55.50;;;;;;5052277;28;45925;-65
2023/04/15 05:02:12;;;;;;;5.40;2.40;;;5.70;55.70;;;;;;5052670;28;46980;-66
2023/04/15 05:04:37;;;;;;;5.37;1.80;;;5.60;55.50;;;;;;5053231;28;45783;-65
2023/04/15 05:07:03;;;;;;;3.97;2.13;;;5.60;55.40;;;;;;5047120;28;46445;-66
2023/04/15 05:09:31;;;;;;;5.53;2.20;;;5.60;55.30;;;;;;5051301;28;46431;-66
2023/04/15 05:11:56;;;;;;;6.80;2.20;;;5.70;55.00;;;;;;5051933;28;46267;-66
2023/04/15 05:14:22;;;;;;;4.03;2.43;;;5.80;54.90;;;;;;5051727;28;46258;-67
2023/04/15 05:16:47;;;;;;;3.40;1.80;;;5.90;54.50;;;;;;5051011;28;46519;-67
2023/04/15 05:19:13;;;;;;;5.53;2.30;;;6.00;54.20;;;;;;5046197;28;46440;-67
2023/04/15 05:21:39;;;;;;;4.10;2.10;;;6.20;55.20;;;;;;5046878;28;46405;-66
2023/04/15 05:24:05;;;;;;;5.47;2.10;;;6.30;53.90;;;;;;5050435;28;46401;-66
2023/04/15 05:26:30;;;;;;;5.17;1.87;;;6.40;53.80;;;;;;5050103;28;45771;-66
2023/04/15 05:28:56;;;;;;;2.43;1.53;;;6.50;53.40;;;;;;5051668;28;46474;-66
2023/04/15 05:31:21;;;;;;;3.37;1.67;;;6.70;53.30;;;;;;5051136;28;47022;-66
2023/04/15 05:33:47;;;;;;;5.73;2.07;;;6.80;53.00;;;;;;5054686;28;46400;-66
2023/04/15 05:36:13;;;;;;;3.80;1.70;;;6.90;52.80;;;;;;5048523;28;46303;-66
2023/04/15 05:38:38;;;;;;;3.97;1.70;;;7.00;52.70;;;;;;5059255;28;46527;-66
2023/04/15 05:41:04;;;;;;;5.23;2.07;;;7.10;52.40;;;;;;5049829;28;46509;-66
2023/04/15 05:43:30;;;;;;;7.93;2.20;;;7.20;52.40;;;;;;5048557;28;46284;-67
2023/04/15 05:46:08;;;;;;;3.93;1.77;;;7.20;52.30;;;;;;5057647;28;46420;-66
2023/04/15 05:48:34;;;;;;;4.67;1.83;;;7.20;52.60;;;;;;5048837;28;46523;-65
2023/04/15 05:51:01;;;;;;;4.17;2.00;;;7.10;53.10;;;;;;5055600;28;46385;-66
2023/04/15 05:53:26;;;;;;;5.63;1.80;;;7.00;53.20;;;;;;5053171;28;46346;-65
2023/04/15 05:56:03;;;;;;;4.93;2.10;;;6.90;53.30;;;;;;5050974;28;46360;-66
2023/04/15 05:58:46;;;;;;;9.07;1.83;;;6.90;53.40;;;;;;5047208;28;46409;-65
2023/04/15 06:01:16;;;;;;;4.60;1.83;;;6.90;53.50;;;;;;5042646;28;46452;-64
2023/04/15 06:03:42;;;;;;;4.40;1.93;;;6.90;53.20;;;;;;5055616;28;46635;-66
2023/04/15 06:06:08;;;;;;;4.50;1.67;;;6.90;53.30;;;;;;5049295;28;46377;-64
2023/04/15 06:08:34;;;;;;;3.53;1.83;;;6.80;53.20;;;;;;5048817;28;46044;-65
2023/04/15 06:10:59;;;;;;;4.70;1.90;;;6.80;53.10;;;;;;5047077;28;47375;-65
2023/04/15 06:13:26;;;;;;;4.17;1.50;;;6.90;52.70;;;;;;5050186;28;46462;-65
2023/04/15 06:15:52;;;;;;;3.90;1.50;;;7.00;52.50;;;;;;5046612;28;46293;-65
2023/04/15 06:18:18;;;;;;;5.23;1.90;;;7.10;52.20;;;;;;5049365;28;46317;-65
2023/04/15 06:20:44;;;;;;;5.00;1.70;;;7.20;52.00;;;;;;5046690;28;46400;-65
2023/04/15 06:23:10;;;;;;;3.30;1.63;;;7.30;51.60;;;;;;5047381;28;46398;-65
2023/04/15 06:25:35;;;;;;;3.03;1.60;;;7.40;51.10;;;;;;5049114;28;45856;-65
2023/04/15 06:28:01;;;;;;;4.33;1.57;;;7.60;50.60;;;;;;5047010;28;46576;-65
2023/04/15 06:30:26;;;;;;;4.20;1.57;;;7.70;50.60;;;;;;5047595;28;47514;-65
2023/04/15 06:32:53;;;;;;;2.70;1.53;;;7.90;50.90;;;;;;5046820;28;46459;-65
2023/04/15 06:35:19;;;;;;;4.27;1.90;;;8.00;50.10;;;;;;5043875;28;46088;-65
2023/04/15 06:37:45;;;;;;;3.40;1.63;;;8.20;49.80;;;;;;5048551;28;46283;-65
2023/04/15 06:40:11;;;;;;;3.63;1.40;;;8.30;49.20;;;;;;5046484;28;46912;-65
2023/04/15 06:42:37;;;;;;;4.73;1.60;;;8.50;50.20;;;;;;5048074;28;46273;-66
2023/04/15 06:45:03;;;;;;;5.60;2.10;;;8.50;48.90;;;;;;5048249;28;45829;-66
2023/04/15 06:47:28;;;;;;;4.37;1.53;;;8.60;48.80;;;;;;5049438;28;46645;-66
2023/04/15 06:49:54;;;;;;;6.80;2.10;;;8.70;48.60;;;;;;5052776;28;46447;-66
2023/04/15 06:52:20;;;;;;;3.40;1.70;;;8.80;48.30;;;;;;5051745;28;46369;-66
2023/04/15 06:54:45;;;;;;;2.47;1.37;;;8.90;47.90;;;;;;5051453;28;45902;-67
2023/04/15 06:57:12;;;;;;;2.90;1.47;;;9.00;47.60;;;;;;5051060;28;46420;-66
2023/04/15 06:59:38;;;;;;;5.50;1.70;;;9.10;47.30;;;;;;5044063;28;47136;-66
2023/04/15 07:02:04;;;;;;;2.77;1.33;;;9.20;47.10;;;;;;5049250;28;46302;-65
2023/04/15 07:04:29;;;;;;;2.73;1.30;;;9.20;46.80;;;;;;5051891;28;45931;-66
2023/04/15 07:06:55;;;;;;;4.50;1.43;;;9.20;46.60;;;;;;5050686;28;46470;-65
2023/04/15 07:09:22;;;;;;;3.87;1.30;;;9.20;46.10;;;;;;5043871;28;46585;-66
2023/04/15 07:11:48;;;;;;;9.97;1.70;;;9.10;46.40;;;;;;5047779;28;46298;-66
2023/04/15 07:14:14;;;;;;;4.90;1.70;;;9.10;46.10;;;;;;5048053;28;46572;-66
2023/04/15 07:16:39;;;;;;;6.80;1.40;;;9.10;46.10;;;;;;5054484;28;45803;-66
2023/04/15 07:19:05;;;;;;;2.07;1.20;;;9.10;45.80;;;;;;5047589;28;46368;-66
2023/04/15 07:21:31;;;;;;;3.67;1.50;;;9.30;45.60;;;;;;5049215;28;46865;-66
2023/04/15 07:23:57;;;;;;;3.93;1.57;;;9.20;45.30;;;;;;5046296;28;45880;-67
2023/04/15 07:26:23;;;;;;;3.30;1.53;;;9.30;45.40;;;;;;5046527;28;46444;-66
2023/04/15 07:28:49;;;;;;;7.57;1.83;;;9.40;45.10;;;;;;5047359;28;46323;-66
2023/04/15 07:31:15;;;;;;;3.63;1.40;;;9.60;44.60;;;;;;5048041;28;46494;-66
2023/04/15 07:33:41;;;;;;;3.60;1.60;;;9.80;44.10;;;;;;5048079;28;46301;-67
2023/04/15 07:36:07;;;;;;;5.77;2.10;;;9.90;43.30;;;;;;5049170;28;46562;-66
2023/04/15 07:38:32;;;;;;;3.70;1.40;;;10.00;41.80;;;;;;5049307;28;46481;-64
2023/04/15 07:40:58;;;;;;;4.90;1.30;;;10.10;41.60;;;;;;5054966;28;46367;-67
2023/04/15 07:43:24;;;;;;;3.60;1.53;;;10.10;41.20;;;;;;5053832;28;46322;-65
2023/04/15 07:45:49;;;;;;;4.10;1.50;;;10.10;41.10;;;;;;5048769;28;46001;-67
2023/04/15 07:48:15;;;;;;;5.10;1.67;;;10.10;40.50;;;;;;5048523;28;47156;-67
2023/04/15 07:50:41;;;;;;;5.00;1.87;;;9.90;41.10;;;;;;5050923;28;46361;-67
2023/04/15 07:53:07;;;;;;;4.97;1.50;;;9.80;40.60;;;;;;5050926;28;45842;-66
2023/04/15 07:55:33;;;;;;;6.90;2.20;;;9.90;40.90;;;;;;5049011;28;46307;-65
2023/04/15 07:57:58;;;;;;;4.87;1.60;;;10.10;39.50;;;;;;5055556;28;48870;-66
2023/04/15 08:00:25;;;;;;;8.27;1.90;;;10.10;38.60;;;;;;5049918;28;46431;-66
2023/04/15 08:02:52;;;;;;;5.33;1.63;;;10.30;39.20;;;;;;5049242;28;46380;-67
2023/04/15 08:05:18;;;;;;;5.80;1.77;;;10.50;38.90;;;;;;5049153;28;46571;-67
2023/04/15 08:07:45;;;;;;;5.10;1.80;;;10.40;38.80;;;;;;5045219;28;46635;-67
2023/04/15 08:10:11;;;;;;;5.37;1.90;;;10.40;38.80;;;;;;5054509;28;46599;-66
2023/04/15 08:12:37;;;;;;;3.80;1.70;;;10.40;38.40;;;;;;5047713;28;45873;-66
2023/04/15 08:15:03;;;;;;;5.43;1.60;;;10.20;36.60;;;;;;5052206;28;46470;-65
2023/04/15 08:17:29;;;;;;;4.77;1.70;;;10.00;37.20;;;;;;5054178;28;46381;-66
2023/04/15 08:19:54;;;;;;;6.23;1.63;;;9.90;37.80;;;;;;5049239;28;46422;-66
2023/04/15 08:22:20;;;;;;;4.83;1.83;;;9.90;38.50;;;;;;5051868;28;46549;-67
2023/04/15 08:24:46;;;;;;;3.30;1.87;;;10.00;37.90;;;;;;5047896;28;45843;-66
2023/04/15 08:27:11;;;;;;;5.23;1.70;;;10.50;38.30;;;;;;5054216;28;46436;-66
2023/04/15 08:29:37;;;;;;;5.83;2.23;;;10.60;36.60;;;;;;5056337;28;46525;-66
2023/04/15 08:32:03;;;;;;;5.97;1.97;;;10.70;36.20;;;;;;5053042;28;46276;-65
2023/04/15 08:34:28;;;;;;;4.27;1.80;;;10.60;36.10;;;;;;5050620;28;46604;-65
2023/04/15 08:36:55;;;;;;;5.43;1.70;;;10.50;36.40;;;;;;5051614;28;46341;-66
2023/04/15 08:39:21;;;;;;;4.27;1.50;;;10.60;36.60;;;;;;5049381;28;45899;-66
2023/04/15 08:41:56;;;;;;;7.87;2.27;;;10.60;36.50;;;;;;5049922;28;46583;-66
2023/04/15 08:44:24;;;;;;;5.87;1.60;;;10.60;36.40;;;;;;5048575;28;46513;-66
2023/04/15 08:46:51;;;;;;;6.70;2.00;;;10.70;36.60;;;;;;5047671;28;46418;-66
2023/04/15 08:49:18;;;;;;;6.83;1.93;;;10.70;36.60;;;;;;5049176;28;46496;-65
2023/04/15 08:51:44;;;;;;;6.33;1.90;;;10.60;36.10;;;;;;5048260;28;46407;-66
2023/04/15 08:54:09;;;;;;;7.67;2.00;;;10.60;36.10;;;;;;5047555;28;46531;-65
2023/04/15 08:56:36;;;;;;;4.10;2.00;;;10.60;36.40;;;;;;5048919;28;46437;-66
2023/04/15 08:59:02;;;;;;;7.90;2.33;;;10.70;36.50;;;;;;5048522;28;46417;-66
2023/04/15 09:01:28;;;;;;;4.70;1.90;;;10.80;36.70;;;;;;5048871;28;46448;-65
2023/04/15 09:03:56;;;;;;;5.07;2.13;;;10.90;36.70;;;;;;5053087;28;45990;-66
2023/04/15 09:06:22;;;;;;;9.00;1.80;;;11.00;36.60;;;;;;5046663;28;47228;-66
2023/04/15 09:08:49;;;;;;;11.37;2.53;;;11.10;36.10;;;;;;5046287;28;46279;-66
2023/04/15 09:11:16;;;;;;;6.97;1.97;;;10.90;35.60;;;;;;5049265;28;45737;-65
2023/04/15 09:13:42;;;;;;;4.50;1.77;;;10.90;35.70;;;;;;5047321;28;46697;-66
2023/04/15 09:16:08;;;;;;;5.87;2.80;;;11.10;35.80;;;;;;5048616;28;46484;-66
2023/04/15 09:18:34;;;;;;;4.77;1.80;;;11.10;35.60;;;;;;5048056;28;46377;-65
2023/04/15 09:21:14;;;;;;;4.43;1.90;;;11.20;35.80;;;;;;5051744;28;45834;-66
2023/04/15 09:23:56;;;;;;;4.93;1.93;;;11.20;35.70;;;;;;5045930;28;46420;-66
2023/04/15 09:26:36;;;;;;;9.17;2.40;;;11.30;35.70;;;;;;5048919;28;46290;-64
2023/04/15 09:29:12;;;;;;;5.53;2.33;;;11.30;35.40;;;;;;5047455;28;46489;-65
2023/04/15 09:31:38;;;;;;;5.47;1.90;;;11.20;34.70;;;;;;5048055;28;46406;-66
2023/04/15 09:34:04;;;;;;;3.97;2.60;;;11.10;34.10;;;;;;5050536;28;45891;-65
2023/04/15 09:36:51;;;;;;;4.50;1.90;;;11.20;33.80;;;;;;5049609;28;46999;-65
2023/04/15 09:39:17;;;;;;;3.70;1.77;;;11.30;32.10;;;;;;5047100;28;46469;-65
2023/04/15 09:41:43;;;;;;;6.40;2.57;;;11.20;32.30;;;;;;5049767;28;46345;-66
2023/04/15 09:44:25;;;;;;;4.10;2.47;;;11.30;32.50;;;;;;5051744;28;46415;-66
2023/04/15 09:46:50;;;;;;;5.43;2.50;;;11.60;32.20;;;;;;5050613;28;47079;-65
2023/04/15 09:49:16;;;;;;;6.90;2.47;;;11.70;31.70;;;;;;5048018;28;46345;-64
2023/04/15 09:51:43;;;;;;;6.00;2.33;;;11.80;31.40;;;;;;5048605;28;46497;-66
2023/04/15 09:54:08;;;;;;;5.57;2.37;;;11.90;31.40;;;;;;5046852;28;46699;-66
2023/04/15 09:56:41;;;;;;;5.07;2.70;;;12.00;30.90;;;;;;5048911;28;46503;-66
2023/04/15 09:59:07;;;;;;;5.13;2.27;;;11.90;30.90;;;;;;5049003;28;46523;-67
2023/04/15 10:01:33;;;;;;;4.90;3.10;;;11.80;30.50;;;;;;5045350;28;46404;-66
2023/04/15 10:04:02;;;;;;;7.53;2.27;;;11.90;30.50;;;;;;5048719;28;45856;-66
2023/04/15 10:06:29;;;;;;;3.70;2.10;;;12.00;29.40;;;;;;5046316;28;46524;-67
2023/04/15 10:08:56;;;;;;;9.20;3.10;;;12.00;29.50;;;;;;5050682;28;46319;-65
2023/04/15 10:11:23;;;;;;;5.30;2.97;;;12.20;29.40;;;;;;5049036;28;46497;-65
2023/04/15 10:13:50;;;;;;;6.40;2.80;;;12.30;27.80;;;;;;5046284;28;46403;-65
2023/04/15 10:16:18;;;;;;;5.33;2.10;;;12.30;27.30;;;;;;5046357;28;46861;-66
2023/04/15 10:18:46;;;;;;;6.90;2.70;;;12.40;27.40;;;;;;5045044;28;46636;-64
2023/04/15 10:21:17;;;;;;;6.77;3.10;;;12.70;27.20;;;;;;5056157;28;46517;-66
2023/04/15 10:23:44;;;;;;;17.93;3.30;;;13.00;27.40;;;;;;5044651;28;46404;-66
2023/04/15 10:26:11;;;;;;;7.10;2.80;;;13.10;27.30;;;;;;5049002;28;47829;-66
2023/04/15 10:28:37;;;;;;;6.63;2.93;;;13.30;27.80;;;;;;5048696;28;46377;-65
2023/04/15 10:31:04;;;;;;;7.20;3.23;;;13.50;27.30;;;;;;5051348;28;46471;-65
2023/04/15 10:33:30;;;;;;;6.03;3.27;;;13.70;26.70;;;;;;5043308;28;46491;-66
2023/04/15 10:35:57;;;;;;;8.60;3.63;;;13.90;26.70;;;;;;5046186;28;46391;-65
2023/04/15 10:38:34;;;;;;;4.83;2.63;;;13.90;26.70;;;;;;5049764;28;46480;-66
2023/04/15 10:41:19;;;;;;;7.30;3.10;;;14.00;25.90;;;;;;5049523;28;46643;-64
2023/04/15 10:43:58;;;;;;;8.20;3.73;;;13.80;26.20;;;;;;5046083;28;46451;-65
2023/04/15 10:46:37;;;;;;;5.87;3.00;;;13.80;26.30;;;;;;5048618;28;46387;-65
2023/04/15 10:49:11;;;;;;;7.50;3.30;;;13.80;25.90;;;;;;5048674;28;46476;-66
2023/04/15 10:51:45;;;;;;;11.17;3.60;;;14.00;25.80;;;;;;5046650;28;46481;-65
2023/04/15 10:54:29;;;;;;;5.83;2.90;;;14.10;26.30;;;;;;5047192;28;46512;-66
2023/04/15 10:57:01;;;;;;;4.80;2.73;;;14.30;25.20;;;;;;5046847;28;47954;-66
2023/04/15 10:59:49;;;;;;;8.80;3.50;;;14.10;24.00;;;;;;5049025;28;45831;-65
2023/04/15 11:02:15;;;;;;;12.50;3.30;;;13.90;23.20;;;;;;5045316;28;46446;-66
2023/04/15 11:04:56;;;;;;;7.93;2.90;;;13.50;23.90;;;;;;5047178;28;46436;-65
2023/04/15 11:07:35;;;;;;;7.27;3.23;;;13.40;23.30;;;;;;5046852;28;47254;-65
2023/04/15 11:10:01;;;;;;;3.70;2.30;;;13.00;22.50;;;;;;5054413;28;46418;-65
2023/04/15 11:12:35;;;;;;;7.33;3.10;;;12.50;22.10;;;;;;5045004;28;46288;-65
2023/04/15 11:15:26;;;;;;;4.30;2.60;;;11.60;22.70;;;;;;5049221;28;46404;-65
2023/04/15 11:17:52;;;;;;;8.30;2.80;;;11.30;23.60;;;;;;5052303;28;46443;-66
2023/04/15 11:20:17;;;;;;;8.03;3.13;;;11.20;24.30;;;;;;5047743;28;46278;-65
2023/04/15 11:22:47;;;;;;;4.83;2.70;;;10.90;24.80;;;;;;5053054;28;46262;-68
2023/04/15 11:25:27;;;;;;;12.20;3.60;;;11.00;25.40;;;;;;5052268;28;46662;-66
2023/04/15 11:27:53;;;;;;;8.70;3.40;;;10.90;26.70;;;;;;5050962;28;46304;-65
2023/04/15 11:30:31;;;;;;;8.07;3.37;;;10.60;27.70;;;;;;5050549;28;46474;-65
2023/04/15 11:33:02;;;;;;;9.90;3.20;;;10.40;29.10;;;;;;5051490;28;46477;-65
2023/04/15 11:35:29;;;;;;;8.77;3.90;;;10.40;29.50;;;;;;5053285;28;46391;-66
2023/04/15 11:37:55;;;;;;;5.03;2.93;;;10.60;29.90;;;;;;5048498;28;47679;-63
2023/04/15 11:40:28;;;;;;;7.13;3.40;;;10.70;30.20;;;;;;5054256;28;46405;-65
2023/04/15 11:43:13;;;;;;;10.10;3.77;;;10.80;30.50;;;;;;5049012;28;46645;-65
2023/04/15 11:45:59;;;;;;;4.87;2.50;;;11.00;30.50;;;;;;5049973;28;46556;-64
2023/04/15 11:48:33;;;;;;;7.53;3.40;;;11.30;30.30;;;;;;5047048;28;48007;-65
2023/04/15 11:51:02;;;;;;;6.50;3.33;;;11.60;29.70;;;;;;5053079;28;46342;-66
2023/04/15 11:53:47;;;;;;;8.90;3.53;;;11.70;29.40;;;;;;5052732;28;45848;-65
2023/04/15 11:56:21;;;;;;;6.30;3.10;;;11.90;29.20;;;;;;5050254;28;46354;-65
2023/04/15 11:58:50;;;;;;;7.50;3.60;;;12.00;29.10;;;;;;5052624;28;46467;-65
2023/04/15 12:01:16;;;;;;;5.57;3.30;;;12.20;28.50;;;;;;5052177;28;46391;-66
2023/04/15 12:03:44;;;;;;;9.30;3.10;;;12.40;27.80;;;;;;5050590;28;46399;-66
2023/04/15 12:06:20;;;;;;;7.70;3.10;;;12.50;27.90;;;;;;5054015;28;46488;-67
2023/04/15 12:08:54;;;;;;;8.60;3.30;;;12.50;26.90;;;;;;5050955;28;46754;-67
2023/04/15 12:11:26;;;;;;;7.73;3.90;;;12.50;27.70;;;;;;5052354;28;46360;-67
2023/04/15 12:13:56;;;;;;;13.33;3.70;;;13.00;27.30;;;;;;5052394;28;46247;-68
2023/04/15 12:16:23;;;;;;;5.03;2.70;;;13.30;26.90;;;;;;5051961;28;46440;-67
2023/04/15 12:18:57;;;;;;;7.90;3.17;;;13.40;26.60;;;;;;5049975;28;46753;-66
2023/04/15 12:21:25;;;;;;;10.33;3.53;;;13.50;26.50;;;;;;5050314;28;46405;-65
2023/04/15 12:23:51;;;;;;;6.77;3.50;;;14.00;26.20;;;;;;5048074;28;45907;-66
2023/04/15 12:26:24;;;;;;;8.23;3.80;;;14.10;26.10;;;;;;5048964;28;46324;-66
2023/04/15 12:29:13;;;;;;;12.97;4.60;;;14.50;25.90;;;;;;5051030;28;46538;-66
2023/04/15 12:32:04;;;;;;;4.97;2.17;;;14.80;25.30;;;;;;5048362;28;46385;-65
2023/04/15 12:34:32;;;;;;;5.77;2.20;;;14.70;23.60;;;;;;5054892;28;46622;-67
2023/04/15 12:37:00;;;;;;;6.80;2.23;;;14.20;21.40;;;;;;5048402;28;46381;-66
2023/04/15 12:39:28;;;;;;;8.43;2.50;;;14.00;21.20;;;;;;5050131;28;46396;-67
2023/04/15 12:41:54;;;;;;;4.60;2.07;;;13.60;17.90;;;;;;5052565;28;46392;-67
2023/04/15 12:44:22;;;;;;;5.50;2.40;;;13.10;19.00;;;;;;5049145;28;46347;-66
2023/04/15 12:46:49;;;;;;;3.53;1.53;;;12.70;18.30;;;;;;5047187;28;46711;-65
2023/04/15 12:49:15;;;;;;;5.07;2.20;;;12.10;17.70;;;;;;5049214;28;48436;-64
2023/04/15 12:51:41;;;;;;;5.97;2.00;;;11.80;18.70;;;;;;5046493;28;46298;-65
2023/04/15 12:54:07;;;;;;;5.60;2.30;;;11.60;18.90;;;;;;5049481;28;46453;-65